sensor_id;sensor_type;location;lat;lon;timestamp;temperature;humidity
17851;DHT22;9051;51.548;14.348;2023-03-12T00:02:18;0.30;99.90
17851;DHT22;9051;51.548;14.348;2023-03-12T00:04:51;0.30;99.90
17851;DHT22;9051;51.548;14.348;2023-03-12T00:07:23;0.30;99.90
17851;DHT22;9051;51.548;14.348;2023-03-12T00:09:56;0.30;99.90
17851;DHT22;9051;51.548;14.348;2023-03-12T00:12:28;0.30;99.90
17851;DHT22;9051;51.548;14.348;2023-03-12T00:15:00;0.20;99.90
17851;DHT22;9051;51.548;14.348;2023-03-12T00:17:32;0.20;99.90
17851;DHT22;9051;51.548;14.348;2023-03-12T00:20:05;0.20;99.90
17851;DHT22;9051;51.548;14.348;2023-03-12T00:22:37;0.20;99.90
17851;DHT22;9051;51.548;14.348;2023-03-12T00:25:13;0.20;99.90
17851;DHT22;9051;51.548;14.348;2023-03-12T00:27:46;0.30;99.90
17851;DHT22;9051;51.548;14.348;2023-03-12T00:30:18;0.30;99.90
17851;DHT22;9051;51.548;14.348;2023-03-12T00:32:50;0.30;99.90
17851;DHT22;9051;51.548;14.348;2023-03-12T00:35:22;0.20;99.90
17851;DHT22;9051;51.548;14.348;2023-03-12T00:37:55;0.20;99.90
17851;DHT22;9051;51.548;14.348;2023-03-12T00:40:28;0.30;99.90
17851;DHT22;9051;51.548;14.348;2023-03-12T00:43:00;0.30;99.90
17851;DHT22;9051;51.548;14.348;2023-03-12T00:45:32;0.30;99.90
17851;DHT22;9051;51.548;14.348;2023-03-12T00:48:04;0.30;99.90
17851;DHT22;9051;51.548;14.348;2023-03-12T00:50:36;0.30;99.90
17851;DHT22;9051;51.548;14.348;2023-03-12T00:53:08;0.20;99.90
17851;DHT22;9051;51.548;14.348;2023-03-12T00:55:42;0.30;99.90
17851;DHT22;9051;51.548;14.348;2023-03-12T00:58:14;0.30;99.90
17851;DHT22;9051;51.548;14.348;2023-03-12T01:00:46;0.30;99.90
17851;DHT22;9051;51.548;14.348;2023-03-12T01:03:19;0.30;99.90
17851;DHT22;9051;51.548;14.348;2023-03-12T01:05:51;0.30;99.90
17851;DHT22;9051;51.548;14.348;2023-03-12T01:08:25;0.20;99.90
17851;DHT22;9051;51.548;14.348;2023-03-12T01:10:59;0.30;99.90
17851;DHT22;9051;51.548;14.348;2023-03-12T01:13:31;0.40;99.90
17851;DHT22;9051;51.548;14.348;2023-03-12T01:16:03;0.40;99.90
17851;DHT22;9051;51.548;14.348;2023-03-12T01:18:35;0.30;99.90
17851;DHT22;9051;51.548;14.348;2023-03-12T01:21:07;0.30;99.90
17851;DHT22;9051;51.548;14.348;2023-03-12T01:23:39;0.30;99.90
17851;DHT22;9051;51.548;14.348;2023-03-12T01:26:12;0.40;99.90
17851;DHT22;9051;51.548;14.348;2023-03-12T01:28:44;0.40;99.90
17851;DHT22;9051;51.548;14.348;2023-03-12T01:31:17;0.30;99.90
17851;DHT22;9051;51.548;14.348;2023-03-12T01:33:50;0.30;99.90
17851;DHT22;9051;51.548;14.348;2023-03-12T01:36:25;0.30;99.90
17851;DHT22;9051;51.548;14.348;2023-03-12T01:38:58;0.30;99.90
17851;DHT22;9051;51.548;14.348;2023-03-12T01:41:32;0.30;99.90
17851;DHT22;9051;51.548;14.348;2023-03-12T01:44:05;0.30;99.90
17851;DHT22;9051;51.548;14.348;2023-03-12T01:46:38;0.30;99.90
17851;DHT22;9051;51.548;14.348;2023-03-12T01:49:18;0.30;99.90
17851;DHT22;9051;51.548;14.348;2023-03-12T01:51:56;0.30;99.90
17851;DHT22;9051;51.548;14.348;2023-03-12T01:54:33;0.30;99.90
17851;DHT22;9051;51.548;14.348;2023-03-12T01:57:11;0.30;99.90
17851;DHT22;9051;51.548;14.348;2023-03-12T01:59:46;0.30;99.90
17851;DHT22;9051;51.548;14.348;2023-03-12T02:02:20;0.20;99.90
17851;DHT22;9051;51.548;14.348;2023-03-12T02:05:02;0.30;99.90
17851;DHT22;9051;51.548;14.348;2023-03-12T02:07:37;0.20;99.90
17851;DHT22;9051;51.548;14.348;2023-03-12T02:10:09;0.20;99.90
17851;DHT22;9051;51.548;14.348;2023-03-12T02:12:43;0.30;99.90
17851;DHT22;9051;51.548;14.348;2023-03-12T02:15:15;0.30;99.90
17851;DHT22;9051;51.548;14.348;2023-03-12T02:17:47;0.30;99.90
17851;DHT22;9051;51.548;14.348;2023-03-12T02:20:22;0.30;99.90
17851;DHT22;9051;51.548;14.348;2023-03-12T02:23:01;0.30;99.90
17851;DHT22;9051;51.548;14.348;2023-03-12T02:25:38;0.30;99.90
17851;DHT22;9051;51.548;14.348;2023-03-12T02:28:12;0.30;99.90
17851;DHT22;9051;51.548;14.348;2023-03-12T02:30:48;0.30;99.90
17851;DHT22;9051;51.548;14.348;2023-03-12T02:33:20;0.30;99.90
17851;DHT22;9051;51.548;14.348;2023-03-12T02:35:53;0.30;99.90
17851;DHT22;9051;51.548;14.348;2023-03-12T02:38:39;0.30;99.90
17851;DHT22;9051;51.548;14.348;2023-03-12T02:41:17;0.20;99.90
17851;DHT22;9051;51.548;14.348;2023-03-12T02:43:53;0.30;99.90
17851;DHT22;9051;51.548;14.348;2023-03-12T02:46:29;0.20;99.90
17851;DHT22;9051;51.548;14.348;2023-03-12T02:49:03;0.20;99.90
17851;DHT22;9051;51.548;14.348;2023-03-12T02:51:35;0.30;99.90
17851;DHT22;9051;51.548;14.348;2023-03-12T02:54:08;0.20;99.90
17851;DHT22;9051;51.548;14.348;2023-03-12T02:56:42;0.20;99.90
17851;DHT22;9051;51.548;14.348;2023-03-12T02:59:14;0.20;99.90
17851;DHT22;9051;51.548;14.348;2023-03-12T03:01:51;0.20;99.90
17851;DHT22;9051;51.548;14.348;2023-03-12T03:04:25;0.20;99.90
17851;DHT22;9051;51.548;14.348;2023-03-12T03:06:57;0.20;99.90
17851;DHT22;9051;51.548;14.348;2023-03-12T03:09:29;0.20;99.90
17851;DHT22;9051;51.548;14.348;2023-03-12T03:12:03;0.30;99.90
17851;DHT22;9051;51.548;14.348;2023-03-12T03:14:37;0.20;99.90
17851;DHT22;9051;51.548;14.348;2023-03-12T03:17:09;0.10;99.90
17851;DHT22;9051;51.548;14.348;2023-03-12T03:19:41;0.20;99.90
17851;DHT22;9051;51.548;14.348;2023-03-12T03:22:14;0.20;99.90
17851;DHT22;9051;51.548;14.348;2023-03-12T03:24:46;0.20;99.90
17851;DHT22;9051;51.548;14.348;2023-03-12T03:27:20;0.30;99.90
17851;DHT22;9051;51.548;14.348;2023-03-12T03:29:52;0.20;99.90
17851;DHT22;9051;51.548;14.348;2023-03-12T03:32:24;0.30;99.90
17851;DHT22;9051;51.548;14.348;2023-03-12T03:34:56;0.30;99.90
17851;DHT22;9051;51.548;14.348;2023-03-12T03:37:28;0.20;99.90
17851;DHT22;9051;51.548;14.348;2023-03-12T03:40:00;0.10;99.90
17851;DHT22;9051;51.548;14.348;2023-03-12T03:42:34;0.10;99.90
17851;DHT22;9051;51.548;14.348;2023-03-12T03:45:08;0.10;99.90
17851;DHT22;9051;51.548;14.348;2023-03-12T03:47:41;0.10;99.90
17851;DHT22;9051;51.548;14.348;2023-03-12T03:50:14;0.20;99.90
17851;DHT22;9051;51.548;14.348;2023-03-12T03:52:45;0.20;99.90
17851;DHT22;9051;51.548;14.348;2023-03-12T03:55:17;0.10;99.90
17851;DHT22;9051;51.548;14.348;2023-03-12T03:57:51;0.10;99.90
17851;DHT22;9051;51.548;14.348;2023-03-12T04:00:23;0.10;99.90
17851;DHT22;9051;51.548;14.348;2023-03-12T04:02:56;0.10;99.90
17851;DHT22;9051;51.548;14.348;2023-03-12T04:05:29;0.10;99.90
17851;DHT22;9051;51.548;14.348;2023-03-12T04:08:01;0.10;99.90
17851;DHT22;9051;51.548;14.348;2023-03-12T04:10:36;0.10;99.90
17851;DHT22;9051;51.548;14.348;2023-03-12T04:13:09;0.20;99.90
17851;DHT22;9051;51.548;14.348;2023-03-12T04:15:46;0.10;99.90
17851;DHT22;9051;51.548;14.348;2023-03-12T04:18:19;0.10;99.90
17851;DHT22;9051;51.548;14.348;2023-03-12T04:20:51;0.00;99.90
17851;DHT22;9051;51.548;14.348;2023-03-12T04:23:23;0.10;99.90
17851;DHT22;9051;51.548;14.348;2023-03-12T04:25:56;0.10;99.90
17851;DHT22;9051;51.548;14.348;2023-03-12T04:28:30;0.10;99.90
17851;DHT22;9051;51.548;14.348;2023-03-12T04:31:04;0.10;99.90
17851;DHT22;9051;51.548;14.348;2023-03-12T04:33:41;0.10;99.90
17851;DHT22;9051;51.548;14.348;2023-03-12T04:36:14;0.10;99.90
17851;DHT22;9051;51.548;14.348;2023-03-12T04:38:48;0.00;99.90
17851;DHT22;9051;51.548;14.348;2023-03-12T04:41:23;0.00;99.90
17851;DHT22;9051;51.548;14.348;2023-03-12T04:44:10;0.10;99.90
17851;DHT22;9051;51.548;14.348;2023-03-12T04:46:43;0.00;99.90
17851;DHT22;9051;51.548;14.348;2023-03-12T04:49:19;0.00;99.90
17851;DHT22;9051;51.548;14.348;2023-03-12T04:51:51;0.00;99.90
17851;DHT22;9051;51.548;14.348;2023-03-12T04:54:24;-0.10;99.90
17851;DHT22;9051;51.548;14.348;2023-03-12T04:56:56;-0.10;99.90
17851;DHT22;9051;51.548;14.348;2023-03-12T04:59:29;-0.20;99.90
17851;DHT22;9051;51.548;14.348;2023-03-12T05:02:01;-0.20;99.90
17851;DHT22;9051;51.548;14.348;2023-03-12T05:04:34;-0.10;99.90
17851;DHT22;9051;51.548;14.348;2023-03-12T05:07:06;-0.10;99.90
17851;DHT22;9051;51.548;14.348;2023-03-12T05:09:38;-0.10;99.90
17851;DHT22;9051;51.548;14.348;2023-03-12T05:12:10;-0.20;99.90
17851;DHT22;9051;51.548;14.348;2023-03-12T05:14:43;-0.20;99.90
17851;DHT22;9051;51.548;14.348;2023-03-12T05:17:15;-0.20;99.90
17851;DHT22;9051;51.548;14.348;2023-03-12T05:19:47;-0.20;99.90
17851;DHT22;9051;51.548;14.348;2023-03-12T05:22:19;-0.10;99.90
17851;DHT22;9051;51.548;14.348;2023-03-12T05:24:51;-0.10;99.90
17851;DHT22;9051;51.548;14.348;2023-03-12T05:27:23;0.00;99.90
17851;DHT22;9051;51.548;14.348;2023-03-12T05:29:58;-0.10;99.90
17851;DHT22;9051;51.548;14.348;2023-03-12T05:32:30;-0.20;99.90
17851;DHT22;9051;51.548;14.348;2023-03-12T05:35:04;-0.20;99.90
17851;DHT22;9051;51.548;14.348;2023-03-12T05:37:36;-0.10;99.90
17851;DHT22;9051;51.548;14.348;2023-03-12T05:40:10;-0.10;99.90
17851;DHT22;9051;51.548;14.348;2023-03-12T05:42:42;-0.10;99.90
17851;DHT22;9051;51.548;14.348;2023-03-12T05:45:16;-0.10;99.90
17851;DHT22;9051;51.548;14.348;2023-03-12T05:47:52;-0.10;99.90
17851;DHT22;9051;51.548;14.348;2023-03-12T05:50:24;-0.10;99.90
17851;DHT22;9051;51.548;14.348;2023-03-12T05:52:56;-0.10;99.90
17851;DHT22;9051;51.548;14.348;2023-03-12T05:55:28;-0.10;99.90
17851;DHT22;9051;51.548;14.348;2023-03-12T05:58:02;-0.10;99.90
17851;DHT22;9051;51.548;14.348;2023-03-12T06:00:36;-0.10;99.90
17851;DHT22;9051;51.548;14.348;2023-03-12T06:03:09;-0.10;99.90
17851;DHT22;9051;51.548;14.348;2023-03-12T06:05:44;0.00;99.90
17851;DHT22;9051;51.548;14.348;2023-03-12T06:08:18;0.00;99.90
17851;DHT22;9051;51.548;14.348;2023-03-12T06:10:50;0.00;99.90
17851;DHT22;9051;51.548;14.348;2023-03-12T06:13:23;0.10;99.90
17851;DHT22;9051;51.548;14.348;2023-03-12T06:16:02;0.00;99.90
17851;DHT22;9051;51.548;14.348;2023-03-12T06:18:35;0.10;99.90
17851;DHT22;9051;51.548;14.348;2023-03-12T06:21:09;0.20;99.90
17851;DHT22;9051;51.548;14.348;2023-03-12T06:23:43;0.20;99.90
17851;DHT22;9051;51.548;14.348;2023-03-12T06:26:21;0.30;99.90
17851;DHT22;9051;51.548;14.348;2023-03-12T06:28:53;0.30;99.90
17851;DHT22;9051;51.548;14.348;2023-03-12T06:31:26;0.30;99.90
17851;DHT22;9051;51.548;14.348;2023-03-12T06:33:58;0.30;99.90
17851;DHT22;9051;51.548;14.348;2023-03-12T06:36:30;0.40;99.90
17851;DHT22;9051;51.548;14.348;2023-03-12T06:39:03;0.40;99.90
17851;DHT22;9051;51.548;14.348;2023-03-12T06:41:37;0.40;99.90
17851;DHT22;9051;51.548;14.348;2023-03-12T06:44:11;0.40;99.90
17851;DHT22;9051;51.548;14.348;2023-03-12T06:46:44;0.40;99.90
17851;DHT22;9051;51.548;14.348;2023-03-12T06:49:16;0.50;99.90
17851;DHT22;9051;51.548;14.348;2023-03-12T06:51:48;0.60;99.90
17851;DHT22;9051;51.548;14.348;2023-03-12T06:54:19;0.60;99.90
17851;DHT22;9051;51.548;14.348;2023-03-12T06:56:51;0.70;99.90
17851;DHT22;9051;51.548;14.348;2023-03-12T06:59:23;0.70;99.90
17851;DHT22;9051;51.548;14.348;2023-03-12T07:01:57;0.70;99.90
17851;DHT22;9051;51.548;14.348;2023-03-12T07:04:29;0.80;99.90
17851;DHT22;9051;51.548;14.348;2023-03-12T07:07:01;0.90;99.90
17851;DHT22;9051;51.548;14.348;2023-03-12T07:09:33;0.90;99.90
17851;DHT22;9051;51.548;14.348;2023-03-12T07:12:05;1.00;99.90
17851;DHT22;9051;51.548;14.348;2023-03-12T07:14:37;1.00;99.90
17851;DHT22;9051;51.548;14.348;2023-03-12T07:17:10;1.00;99.90
17851;DHT22;9051;51.548;14.348;2023-03-12T07:19:42;1.10;99.90
17851;DHT22;9051;51.548;14.348;2023-03-12T07:22:14;1.10;99.90
17851;DHT22;9051;51.548;14.348;2023-03-12T07:24:46;1.20;99.90
17851;DHT22;9051;51.548;14.348;2023-03-12T07:27:18;1.40;99.90
17851;DHT22;9051;51.548;14.348;2023-03-12T07:29:50;1.50;99.90
17851;DHT22;9051;51.548;14.348;2023-03-12T07:32:24;1.50;99.90
17851;DHT22;9051;51.548;14.348;2023-03-12T07:34:56;1.50;99.90
17851;DHT22;9051;51.548;14.348;2023-03-12T07:37:27;1.50;99.90
17851;DHT22;9051;51.548;14.348;2023-03-12T07:39:59;1.50;99.90
17851;DHT22;9051;51.548;14.348;2023-03-12T07:42:31;1.60;99.90
17851;DHT22;9051;51.548;14.348;2023-03-12T07:45:04;1.60;99.90
17851;DHT22;9051;51.548;14.348;2023-03-12T07:47:38;1.70;99.90
17851;DHT22;9051;51.548;14.348;2023-03-12T07:50:11;1.70;99.90
17851;DHT22;9051;51.548;14.348;2023-03-12T07:52:43;1.80;99.90
17851;DHT22;9051;51.548;14.348;2023-03-12T07:55:16;1.80;99.90
17851;DHT22;9051;51.548;14.348;2023-03-12T07:57:48;1.90;99.90
17851;DHT22;9051;51.548;14.348;2023-03-12T08:00:21;1.90;99.90
17851;DHT22;9051;51.548;14.348;2023-03-12T08:02:54;1.90;99.90
17851;DHT22;9051;51.548;14.348;2023-03-12T08:05:26;2.00;99.90
17851;DHT22;9051;51.548;14.348;2023-03-12T08:07:58;2.10;99.90
17851;DHT22;9051;51.548;14.348;2023-03-12T08:10:30;2.10;99.90
17851;DHT22;9051;51.548;14.348;2023-03-12T08:13:02;2.30;99.90
17851;DHT22;9051;51.548;14.348;2023-03-12T08:15:33;2.30;99.90
17851;DHT22;9051;51.548;14.348;2023-03-12T08:18:07;2.30;99.90
17851;DHT22;9051;51.548;14.348;2023-03-12T08:20:39;2.50;99.90
17851;DHT22;9051;51.548;14.348;2023-03-12T08:23:11;2.50;99.90
17851;DHT22;9051;51.548;14.348;2023-03-12T08:25:44;2.50;99.90
17851;DHT22;9051;51.548;14.348;2023-03-12T08:28:17;2.70;99.90
17851;DHT22;9051;51.548;14.348;2023-03-12T08:30:50;2.70;99.90
17851;DHT22;9051;51.548;14.348;2023-03-12T08:33:23;2.70;99.90
17851;DHT22;9051;51.548;14.348;2023-03-12T08:35:55;2.80;99.90
17851;DHT22;9051;51.548;14.348;2023-03-12T08:38:27;2.80;99.90
17851;DHT22;9051;51.548;14.348;2023-03-12T08:40:59;2.80;99.90
17851;DHT22;9051;51.548;14.348;2023-03-12T08:43:32;2.90;99.90
17851;DHT22;9051;51.548;14.348;2023-03-12T08:46:04;3.00;99.90
17851;DHT22;9051;51.548;14.348;2023-03-12T08:48:37;3.00;99.90
17851;DHT22;9051;51.548;14.348;2023-03-12T08:51:10;3.10;99.90
17851;DHT22;9051;51.548;14.348;2023-03-12T08:53:43;3.20;99.90
17851;DHT22;9051;51.548;14.348;2023-03-12T08:56:15;3.40;99.90
17851;DHT22;9051;51.548;14.348;2023-03-12T08:58:47;3.40;99.90
17851;DHT22;9051;51.548;14.348;2023-03-12T09:01:19;3.40;99.90
17851;DHT22;9051;51.548;14.348;2023-03-12T09:03:52;3.40;99.90
17851;DHT22;9051;51.548;14.348;2023-03-12T09:06:24;3.60;99.90
17851;DHT22;9051;51.548;14.348;2023-03-12T09:08:56;3.60;99.90
17851;DHT22;9051;51.548;14.348;2023-03-12T09:11:36;3.70;99.90
17851;DHT22;9051;51.548;14.348;2023-03-12T09:14:09;3.80;99.90
17851;DHT22;9051;51.548;14.348;2023-03-12T09:16:41;3.90;99.90
17851;DHT22;9051;51.548;14.348;2023-03-12T09:19:14;4.10;99.90
17851;DHT22;9051;51.548;14.348;2023-03-12T09:21:46;4.20;99.90
17851;DHT22;9051;51.548;14.348;2023-03-12T09:24:18;4.20;99.90
17851;DHT22;9051;51.548;14.348;2023-03-12T09:26:50;4.30;99.90
17851;DHT22;9051;51.548;14.348;2023-03-12T09:29:22;4.20;99.90
17851;DHT22;9051;51.548;14.348;2023-03-12T09:31:54;4.30;99.90
17851;DHT22;9051;51.548;14.348;2023-03-12T09:34:27;4.20;99.90
17851;DHT22;9051;51.548;14.348;2023-03-12T09:36:59;4.20;99.90
17851;DHT22;9051;51.548;14.348;2023-03-12T09:39:32;4.30;99.90
17851;DHT22;9051;51.548;14.348;2023-03-12T09:42:05;4.40;99.90
17851;DHT22;9051;51.548;14.348;2023-03-12T09:44:44;4.50;99.90
17851;DHT22;9051;51.548;14.348;2023-03-12T09:47:24;4.50;99.90
17851;DHT22;9051;51.548;14.348;2023-03-12T09:50:03;4.50;99.90
17851;DHT22;9051;51.548;14.348;2023-03-12T09:52:39;4.60;99.90
17851;DHT22;9051;51.548;14.348;2023-03-12T09:55:16;4.70;99.90
17851;DHT22;9051;51.548;14.348;2023-03-12T09:57:50;4.80;99.90
17851;DHT22;9051;51.548;14.348;2023-03-12T10:00:26;4.80;99.90
17851;DHT22;9051;51.548;14.348;2023-03-12T10:03:21;4.90;99.90
17851;DHT22;9051;51.548;14.348;2023-03-12T10:06:02;4.90;99.90
17851;DHT22;9051;51.548;14.348;2023-03-12T10:08:46;4.90;99.90
17851;DHT22;9051;51.548;14.348;2023-03-12T10:11:28;5.00;99.90
17851;DHT22;9051;51.548;14.348;2023-03-12T10:14:14;5.10;99.90
17851;DHT22;9051;51.548;14.348;2023-03-12T10:16:53;5.20;99.90
17851;DHT22;9051;51.548;14.348;2023-03-12T10:19:39;5.40;99.90
17851;DHT22;9051;51.548;14.348;2023-03-12T10:22:21;5.50;99.90
17851;DHT22;9051;51.548;14.348;2023-03-12T10:25:04;5.60;99.90
17851;DHT22;9051;51.548;14.348;2023-03-12T10:27:39;5.70;99.90
17851;DHT22;9051;51.548;14.348;2023-03-12T10:30:16;5.70;99.90
17851;DHT22;9051;51.548;14.348;2023-03-12T10:32:50;5.80;99.90
17851;DHT22;9051;51.548;14.348;2023-03-12T10:35:26;5.60;99.90
17851;DHT22;9051;51.548;14.348;2023-03-12T10:38:02;5.70;99.90
17851;DHT22;9051;51.548;14.348;2023-03-12T10:40:35;5.70;99.90
17851;DHT22;9051;51.548;14.348;2023-03-12T10:43:08;5.80;99.90
17851;DHT22;9051;51.548;14.348;2023-03-12T10:45:45;5.80;99.90
17851;DHT22;9051;51.548;14.348;2023-03-12T10:48:21;5.80;99.90
17851;DHT22;9051;51.548;14.348;2023-03-12T10:51:04;5.90;99.90
17851;DHT22;9051;51.548;14.348;2023-03-12T10:53:38;6.10;99.90
17851;DHT22;9051;51.548;14.348;2023-03-12T10:56:14;6.10;99.90
17851;DHT22;9051;51.548;14.348;2023-03-12T10:58:48;6.20;99.90
17851;DHT22;9051;51.548;14.348;2023-03-12T11:01:22;6.20;99.90
17851;DHT22;9051;51.548;14.348;2023-03-12T11:04:13;6.20;99.90
17851;DHT22;9051;51.548;14.348;2023-03-12T11:07:17;6.40;99.90
17851;DHT22;9051;51.548;14.348;2023-03-12T11:10:15;6.40;99.90
17851;DHT22;9051;51.548;14.348;2023-03-12T11:13:00;6.40;99.90
17851;DHT22;9051;51.548;14.348;2023-03-12T11:15:40;6.50;99.90
17851;DHT22;9051;51.548;14.348;2023-03-12T11:18:31;6.60;99.90
17851;DHT22;9051;51.548;14.348;2023-03-12T11:21:16;6.70;99.90
17851;DHT22;9051;51.548;14.348;2023-03-12T11:24:07;6.70;99.90
17851;DHT22;9051;51.548;14.348;2023-03-12T11:26:48;6.60;99.90
17851;DHT22;9051;51.548;14.348;2023-03-12T11:29:25;6.70;99.90
17851;DHT22;9051;51.548;14.348;2023-03-12T11:32:02;6.80;99.90
17851;DHT22;9051;51.548;14.348;2023-03-12T11:34:37;6.90;99.90
17851;DHT22;9051;51.548;14.348;2023-03-12T11:37:14;7.00;99.90
17851;DHT22;9051;51.548;14.348;2023-03-12T11:39:58;7.10;99.90
17851;DHT22;9051;51.548;14.348;2023-03-12T11:42:55;7.10;99.90
17851;DHT22;9051;51.548;14.348;2023-03-12T11:45:39;7.20;99.90
17851;DHT22;9051;51.548;14.348;2023-03-12T11:48:22;7.30;99.90
17851;DHT22;9051;51.548;14.348;2023-03-12T11:51:02;7.40;99.90
17851;DHT22;9051;51.548;14.348;2023-03-12T11:53:54;7.50;99.90
17851;DHT22;9051;51.548;14.348;2023-03-12T11:56:33;7.60;99.90
17851;DHT22;9051;51.548;14.348;2023-03-12T11:59:23;7.70;99.90
17851;DHT22;9051;51.548;14.348;2023-03-12T12:02:10;7.70;99.90
17851;DHT22;9051;51.548;14.348;2023-03-12T12:07:58;7.60;99.90
17851;DHT22;9051;51.548;14.348;2023-03-12T12:10:40;7.60;99.90
17851;DHT22;9051;51.548;14.348;2023-03-12T12:13:21;7.50;99.90
17851;DHT22;9051;51.548;14.348;2023-03-12T12:16:05;7.60;99.90
17851;DHT22;9051;51.548;14.348;2023-03-12T12:18:50;7.70;99.90
17851;DHT22;9051;51.548;14.348;2023-03-12T12:21:41;7.70;99.90
17851;DHT22;9051;51.548;14.348;2023-03-12T12:24:28;7.90;99.90
17851;DHT22;9051;51.548;14.348;2023-03-12T12:27:11;8.20;99.90
17851;DHT22;9051;51.548;14.348;2023-03-12T12:30:02;8.40;99.90
17851;DHT22;9051;51.548;14.348;2023-03-12T12:32:52;8.40;99.90
17851;DHT22;9051;51.548;14.348;2023-03-12T12:35:33;8.40;99.90
17851;DHT22;9051;51.548;14.348;2023-03-12T12:38:10;8.30;99.90
17851;DHT22;9051;51.548;14.348;2023-03-12T12:40:46;8.20;99.90
17851;DHT22;9051;51.548;14.348;2023-03-12T12:43:25;8.20;99.90
17851;DHT22;9051;51.548;14.348;2023-03-12T12:46:01;8.10;99.90
17851;DHT22;9051;51.548;14.348;2023-03-12T12:48:38;8.10;99.90
17851;DHT22;9051;51.548;14.348;2023-03-12T12:51:14;8.00;99.90
17851;DHT22;9051;51.548;14.348;2023-03-12T12:53:50;8.00;99.90
17851;DHT22;9051;51.548;14.348;2023-03-12T12:56:31;7.90;99.90
17851;DHT22;9051;51.548;14.348;2023-03-12T12:59:26;7.80;99.90
17851;DHT22;9051;51.548;14.348;2023-03-12T13:02:03;7.80;99.90
17851;DHT22;9051;51.548;14.348;2023-03-12T13:04:37;7.70;99.90
17851;DHT22;9051;51.548;14.348;2023-03-12T13:07:31;7.70;99.90
17851;DHT22;9051;51.548;14.348;2023-03-12T13:10:06;7.70;99.90
17851;DHT22;9051;51.548;14.348;2023-03-12T13:12:59;7.60;99.90
17851;DHT22;9051;51.548;14.348;2023-03-12T13:15:36;7.60;99.90
17851;DHT22;9051;51.548;14.348;2023-03-12T13:18:22;7.50;99.90
17851;DHT22;9051;51.548;14.348;2023-03-12T13:21:18;7.50;99.90
17851;DHT22;9051;51.548;14.348;2023-03-12T13:24:02;7.50;99.90
17851;DHT22;9051;51.548;14.348;2023-03-12T13:26:48;7.50;99.90
17851;DHT22;9051;51.548;14.348;2023-03-12T13:29:34;7.50;99.90
17851;DHT22;9051;51.548;14.348;2023-03-12T13:32:36;7.50;99.90
17851;DHT22;9051;51.548;14.348;2023-03-12T13:35:30;7.50;99.90
17851;DHT22;9051;51.548;14.348;2023-03-12T13:38:06;7.50;99.90
17851;DHT22;9051;51.548;14.348;2023-03-12T13:40:59;7.40;99.90
17851;DHT22;9051;51.548;14.348;2023-03-12T13:43:48;7.40;99.90
17851;DHT22;9051;51.548;14.348;2023-03-12T13:46:34;7.30;99.90
17851;DHT22;9051;51.548;14.348;2023-03-12T13:49:20;7.30;99.90
17851;DHT22;9051;51.548;14.348;2023-03-12T13:51:59;7.30;99.90
17851;DHT22;9051;51.548;14.348;2023-03-12T13:54:35;7.30;99.90
17851;DHT22;9051;51.548;14.348;2023-03-12T13:57:20;7.30;99.90
17851;DHT22;9051;51.548;14.348;2023-03-12T13:59:56;7.30;99.90
17851;DHT22;9051;51.548;14.348;2023-03-12T14:02:31;7.30;99.90
17851;DHT22;9051;51.548;14.348;2023-03-12T14:05:07;7.40;99.90
17851;DHT22;9051;51.548;14.348;2023-03-12T14:08:05;7.40;99.90
17851;DHT22;9051;51.548;14.348;2023-03-12T14:10:51;7.40;99.90
17851;DHT22;9051;51.548;14.348;2023-03-12T14:13:37;7.30;99.90
17851;DHT22;9051;51.548;14.348;2023-03-12T14:16:17;7.30;99.90
17851;DHT22;9051;51.548;14.348;2023-03-12T14:18:52;7.30;99.90
17851;DHT22;9051;51.548;14.348;2023-03-12T14:21:27;7.30;99.90
17851;DHT22;9051;51.548;14.348;2023-03-12T14:24:01;7.30;99.90
17851;DHT22;9051;51.548;14.348;2023-03-12T14:26:35;7.20;99.90
17851;DHT22;9051;51.548;14.348;2023-03-12T14:29:10;7.20;99.90
17851;DHT22;9051;51.548;14.348;2023-03-12T14:31:46;7.20;99.90
17851;DHT22;9051;51.548;14.348;2023-03-12T14:34:20;7.10;99.90
17851;DHT22;9051;51.548;14.348;2023-03-12T14:36:57;7.10;99.90
17851;DHT22;9051;51.548;14.348;2023-03-12T14:59:25;6.90;99.90
17851;DHT22;9051;51.548;14.348;2023-03-12T15:02:00;6.80;99.90
17851;DHT22;9051;51.548;14.348;2023-03-12T15:04:34;6.80;99.90
17851;DHT22;9051;51.548;14.348;2023-03-12T15:07:09;6.70;99.90
17851;DHT22;9051;51.548;14.348;2023-03-12T15:09:43;6.70;99.90
17851;DHT22;9051;51.548;14.348;2023-03-12T15:12:18;6.70;99.90
17851;DHT22;9051;51.548;14.348;2023-03-12T15:14:54;6.70;99.90
17851;DHT22;9051;51.548;14.348;2023-03-12T15:17:29;6.70;99.90
17851;DHT22;9051;51.548;14.348;2023-03-12T15:20:03;6.70;99.90
17851;DHT22;9051;51.548;14.348;2023-03-12T15:22:39;6.60;99.90
17851;DHT22;9051;51.548;14.348;2023-03-12T15:25:21;6.70;99.90
17851;DHT22;9051;51.548;14.348;2023-03-12T15:28:05;6.70;99.90
17851;DHT22;9051;51.548;14.348;2023-03-12T15:30:39;6.70;99.90
17851;DHT22;9051;51.548;14.348;2023-03-12T15:33:22;6.70;99.90
17851;DHT22;9051;51.548;14.348;2023-03-12T15:36:00;6.80;99.90
17851;DHT22;9051;51.548;14.348;2023-03-12T15:38:34;6.70;99.90
17851;DHT22;9051;51.548;14.348;2023-03-12T15:41:08;6.70;99.90
17851;DHT22;9051;51.548;14.348;2023-03-12T15:43:42;6.60;99.90
17851;DHT22;9051;51.548;14.348;2023-03-12T15:46:17;6.60;99.90
17851;DHT22;9051;51.548;14.348;2023-03-12T15:48:51;6.60;99.90
17851;DHT22;9051;51.548;14.348;2023-03-12T15:51:30;6.60;99.90
17851;DHT22;9051;51.548;14.348;2023-03-12T15:54:05;6.50;99.90
17851;DHT22;9051;51.548;14.348;2023-03-12T15:56:51;6.50;99.90
17851;DHT22;9051;51.548;14.348;2023-03-12T15:59:24;6.40;99.90
17851;DHT22;9051;51.548;14.348;2023-03-12T16:01:58;6.40;99.90
17851;DHT22;9051;51.548;14.348;2023-03-12T16:04:30;6.50;99.90
17851;DHT22;9051;51.548;14.348;2023-03-12T16:07:02;6.40;99.90
17851;DHT22;9051;51.548;14.348;2023-03-12T16:09:35;6.40;99.90
17851;DHT22;9051;51.548;14.348;2023-03-12T16:12:09;6.40;99.90
17851;DHT22;9051;51.548;14.348;2023-03-12T16:14:41;6.40;99.90
17851;DHT22;9051;51.548;14.348;2023-03-12T16:17:21;6.30;99.90
17851;DHT22;9051;51.548;14.348;2023-03-12T16:19:53;6.40;99.90
17851;DHT22;9051;51.548;14.348;2023-03-12T16:22:25;6.30;99.90
17851;DHT22;9051;51.548;14.348;2023-03-12T16:24:58;6.30;99.90
17851;DHT22;9051;51.548;14.348;2023-03-12T16:27:30;6.30;99.90
17851;DHT22;9051;51.548;14.348;2023-03-12T16:30:15;6.20;99.90
17851;DHT22;9051;51.548;14.348;2023-03-12T16:32:48;6.20;99.90
17851;DHT22;9051;51.548;14.348;2023-03-12T16:35:20;6.10;99.90
17851;DHT22;9051;51.548;14.348;2023-03-12T16:37:53;6.10;99.90
17851;DHT22;9051;51.548;14.348;2023-03-12T16:40:25;6.10;99.90
17851;DHT22;9051;51.548;14.348;2023-03-12T16:42:59;6.10;99.90
17851;DHT22;9051;51.548;14.348;2023-03-12T16:45:33;6.00;99.90
17851;DHT22;9051;51.548;14.348;2023-03-12T16:48:13;6.00;99.90
17851;DHT22;9051;51.548;14.348;2023-03-12T16:50:49;5.90;99.90
17851;DHT22;9051;51.548;14.348;2023-03-12T16:53:22;5.90;99.90
17851;DHT22;9051;51.548;14.348;2023-03-12T16:55:55;5.90;99.90
17851;DHT22;9051;51.548;14.348;2023-03-12T16:58:29;5.80;99.90
17851;DHT22;9051;51.548;14.348;2023-03-12T17:01:03;5.80;99.90
17851;DHT22;9051;51.548;14.348;2023-03-12T17:03:41;5.70;99.90